createdAt,value
2019-04-25T00:01:01.190Z,12.00
2019-04-25T00:04:13.728Z,12.00
2019-04-25T00:07:18.766Z,12.00
2019-04-25T00:09:55.982Z,11.90
2019-04-25T00:12:26.925Z,11.80
2019-04-25T00:14:58.058Z,11.80
2019-04-25T00:17:43.272Z,11.70
2019-04-25T00:20:18.258Z,11.60
2019-04-25T00:23:16.611Z,11.50
2019-04-25T00:25:59.337Z,11.40
2019-04-25T00:28:36.124Z,11.30
2019-04-25T00:31:09.311Z,11.30
2019-04-25T00:33:41.989Z,11.20
2019-04-25T00:36:13.211Z,11.10
2019-04-25T00:38:49.015Z,11.10
2019-04-25T00:42:42.989Z,11.10
2019-04-25T00:44:45.955Z,11.10
2019-04-25T00:47:24.132Z,11.00
2019-04-25T00:50:34.452Z,11.00
2019-04-25T00:53:05.273Z,11.00
2019-04-25T00:56:01.480Z,11.00
2019-04-25T00:59:16.761Z,11.00
2019-04-25T01:05:18.657Z,11.00
2019-04-25T01:08:25.261Z,10.90
2019-04-25T01:11:19.048Z,10.80
2019-04-25T01:13:56.519Z,10.80
2019-04-25T01:16:46.507Z,10.80
2019-04-25T01:19:40.232Z,10.80
2019-04-25T01:22:38.397Z,10.70
2019-04-25T01:25:40.954Z,10.70
2019-04-25T01:28:07.620Z,10.60
2019-04-25T01:30:38.593Z,10.50
2019-04-25T01:33:09.973Z,10.40
2019-04-25T01:35:59.661Z,10.40
2019-04-25T01:38:40.935Z,10.30
2019-04-25T01:41:36.803Z,10.20
2019-04-25T01:44:35.351Z,10.10
2019-04-25T01:47:16.675Z,10.10
2019-04-25T01:51:06.708Z,10.00
2019-04-25T01:54:07.622Z,9.90
2019-04-25T01:56:45.339Z,9.90
2019-04-25T02:03:40.187Z,9.70
2019-04-25T02:09:36.460Z,9.50
2019-04-25T02:12:33.758Z,9.40
2019-04-25T02:15:07.212Z,9.40
2019-04-25T02:17:44.287Z,9.40
2019-04-25T02:23:44.186Z,9.40
2019-04-25T02:26:22.030Z,9.50
2019-04-25T02:29:29.363Z,9.60
2019-04-25T02:32:27.188Z,9.60
2019-04-25T02:35:09.264Z,9.60
2019-04-25T02:37:45.953Z,9.60
2019-04-25T02:40:59.516Z,9.60
2019-04-25T02:44:09.443Z,9.60
2019-04-25T02:47:26.893Z,9.70
2019-04-25T02:50:24.702Z,9.80
2019-04-25T02:53:37.439Z,9.90
2019-04-25T02:56:27.372Z,10.00
2019-04-25T02:59:00.256Z,10.10
2019-04-25T03:02:15.130Z,10.10
2019-04-25T03:05:09.945Z,10.00
2019-04-25T03:08:21.256Z,10.00
2019-04-25T03:11:09.300Z,9.90
2019-04-25T03:13:40.520Z,9.80
2019-04-25T03:16:54.357Z,9.70
2019-04-25T03:19:48.893Z,9.70
2019-04-25T03:22:37.566Z,9.60
2019-04-25T03:25:24.754Z,9.60
2019-04-25T03:28:38.003Z,9.60
2019-04-25T03:31:35.066Z,9.50
2019-04-25T03:34:36.453Z,9.40
2019-04-25T03:37:10.332Z,9.30
2019-04-25T03:39:45.610Z,9.20
2019-04-25T03:42:36.892Z,9.10
2019-04-25T03:45:14.012Z,9.00
2019-04-25T03:48:07.495Z,8.90
2019-04-25T03:50:46.894Z,8.90
2019-04-25T03:53:57.367Z,8.90
2019-04-25T03:57:14.332Z,8.90
2019-04-25T04:00:11.494Z,8.90
2019-04-25T04:02:44.110Z,9.00
2019-04-25T04:05:15.444Z,9.10
2019-04-25T04:07:55.485Z,9.10
2019-04-25T04:10:54.365Z,9.20
2019-04-25T04:13:43.927Z,9.20
2019-04-25T04:16:23.224Z,9.20
2019-04-25T04:18:58.361Z,9.20
2019-04-25T04:22:05.382Z,9.30
2019-04-25T04:24:54.124Z,9.30
2019-04-25T04:27:36.831Z,9.40
2019-04-25T04:30:16.446Z,9.40
2019-04-25T04:33:31.868Z,9.40
2019-04-25T04:36:24.223Z,9.40
2019-04-25T04:39:16.472Z,9.40
2019-04-25T04:41:59.564Z,9.50
2019-04-25T04:44:49.232Z,9.60
2019-04-25T04:47:25.554Z,9.70
2019-04-25T04:50:15.375Z,10.00
2019-04-25T04:53:07.162Z,10.10
2019-04-25T04:55:44.968Z,10.20
2019-04-25T04:58:43.063Z,10.20
2019-04-25T05:02:00.223Z,10.30
2019-04-25T05:04:44.660Z,10.40
2019-04-25T05:07:53.960Z,10.70
2019-04-25T05:10:34.693Z,11.00
2019-04-25T05:13:19.722Z,11.60
2019-04-25T05:16:38.827Z,12.60
2019-04-25T05:19:30.803Z,13.40
2019-04-25T05:22:18.204Z,14.50
2019-04-25T05:24:49.575Z,15.80
2019-04-25T05:27:45.962Z,17.20
2019-04-25T05:30:15.330Z,18.30
2019-04-25T05:33:06.045Z,18.80
2019-04-25T05:36:35.284Z,18.80
2019-04-25T05:39:11.713Z,19.30
2019-04-25T05:42:15.155Z,20.00
2019-04-25T05:45:18.925Z,20.50
2019-04-25T05:48:06.425Z,21.10
2019-04-25T05:50:39.266Z,20.70
2019-04-25T05:54:08.567Z,20.20
2019-04-25T05:57:08.285Z,20.30
2019-04-25T05:59:47.411Z,20.90
2019-04-25T06:02:44.301Z,22.00
2019-04-25T06:05:28.395Z,23.20
2019-04-25T06:07:59.522Z,24.20
2019-04-25T06:10:50.913Z,24.50
2019-04-25T06:13:43.364Z,25.00
2019-04-25T06:26:53.855Z,26.10
2019-04-25T06:27:25.527Z,26.80
2019-04-25T06:39:51.437Z,29.90
2019-04-25T06:46:54.650Z,30.10
2019-04-25T06:49:45.057Z,31.00
2019-04-25T06:52:28.252Z,30.60
2019-04-25T07:02:33.585Z,30.80
2019-04-25T07:05:40.435Z,30.30
2019-04-25T07:08:44.927Z,29.70
2019-04-25T07:23:26.348Z,31.60
2019-04-25T07:30:04.966Z,30.10
2019-04-25T07:37:44.094Z,31.30
2019-04-25T07:41:17.276Z,31.50
2019-04-25T07:44:07.157Z,31.80
2019-04-25T07:50:53.736Z,31.70
2019-04-25T07:54:25.534Z,32.40
2019-04-25T08:00:50.365Z,30.90
2019-04-25T08:07:36.280Z,32.10
2019-04-25T08:22:08.947Z,32.90
2019-04-25T08:29:25.607Z,32.90
2019-04-25T08:40:13.657Z,34.80
2019-04-25T08:43:32.488Z,34.00
2019-04-25T08:46:59.694Z,35.40
2019-04-25T08:50:26.301Z,36.60
2019-04-25T08:53:39.682Z,36.30
2019-04-25T09:04:32.617Z,37.80
2019-04-25T09:07:37.739Z,39.10
2019-04-25T09:10:39.733Z,38.60
2019-04-25T09:31:17.415Z,43.00
2019-04-25T09:33:47.295Z,42.10
2019-04-25T09:36:24.108Z,38.80
2019-04-25T09:39:44.363Z,36.50
2019-04-25T09:42:36.922Z,34.40
2019-04-25T09:45:43.584Z,35.60
2019-04-25T09:48:46.753Z,36.00
2019-04-25T09:51:23.591Z,39.20
2019-04-25T09:54:46.570Z,40.40
2019-04-25T10:03:58.236Z,41.40
2019-04-25T10:06:40.676Z,40.60
2019-04-25T10:09:28.139Z,42.30
2019-04-25T10:11:58.149Z,44.20
2019-04-25T10:15:06.677Z,44.20
2019-04-25T10:21:43.669Z,44.60
2019-04-25T10:30:49.625Z,44.00
2019-04-25T10:33:20.408Z,42.90
2019-04-25T10:35:56.804Z,43.20
2019-04-25T10:38:28.511Z,43.10
2019-04-25T10:41:01.511Z,42.60
2019-04-25T10:43:31.294Z,42.60
2019-04-25T10:46:00.858Z,42.30
2019-04-25T10:48:30.698Z,40.60
2019-04-25T10:51:00.521Z,39.60
2019-04-25T10:53:30.664Z,38.40
2019-04-25T10:56:00.588Z,35.80
2019-04-25T10:58:30.467Z,33.70
2019-04-25T11:01:00.150Z,31.50
2019-04-25T11:03:39.637Z,30.10
2019-04-25T11:06:10.687Z,29.50
2019-04-25T11:08:40.454Z,28.80
2019-04-25T11:11:11.789Z,28.40
2019-04-25T11:13:44.298Z,28.00
2019-04-25T11:16:16.099Z,27.50
2019-04-25T11:18:47.602Z,27.30
2019-04-25T11:21:18.450Z,27.40
2019-04-25T11:23:50.009Z,27.30
2019-04-25T11:26:21.258Z,27.10
2019-04-25T11:28:51.971Z,26.80
2019-04-25T11:31:27.820Z,26.90
2019-04-25T11:33:58.850Z,27.20
2019-04-25T11:36:35.920Z,27.00
2019-04-25T11:39:33.118Z,26.40
2019-04-25T11:42:14.735Z,26.20
2019-04-25T11:44:45.902Z,25.80
2019-04-25T11:47:16.845Z,25.10
2019-04-25T11:49:47.926Z,24.90
2019-04-25T11:52:27.339Z,24.80
2019-04-25T11:54:52.831Z,24.40
2019-04-25T11:57:24.046Z,24.00
2019-04-25T11:59:55.934Z,24.00
2019-04-25T12:02:35.132Z,23.90
2019-04-25T12:05:08.289Z,23.80
2019-04-25T12:07:38.905Z,23.90
2019-04-25T12:10:10.069Z,23.90
2019-04-25T12:12:40.703Z,23.60
2019-04-25T12:15:13.223Z,23.40
2019-04-25T12:17:44.867Z,23.30
2019-04-25T12:20:15.828Z,23.40
2019-04-25T12:22:46.641Z,23.40
2019-04-25T12:25:17.604Z,23.40
2019-04-25T12:27:49.910Z,23.40
2019-04-25T12:30:20.725Z,23.20
2019-04-25T12:32:52.306Z,23.00
2019-04-25T12:35:24.240Z,22.90
2019-04-25T12:37:56.478Z,23.00
2019-04-25T12:40:27.270Z,23.30
2019-04-25T12:42:58.053Z,23.60
2019-04-25T12:45:47.422Z,23.80
2019-04-25T12:48:18.052Z,24.20
2019-04-25T12:50:49.876Z,24.20
2019-04-25T12:53:20.660Z,24.30
2019-04-25T12:55:51.985Z,24.70
2019-04-25T12:58:23.897Z,25.00
2019-04-25T13:00:58.577Z,25.10
2019-04-25T13:03:27.712Z,25.40
2019-04-25T13:05:58.457Z,25.60
2019-04-25T13:08:29.096Z,25.40
2019-04-25T13:11:08.043Z,25.50
2019-04-25T13:13:33.767Z,25.20
2019-04-25T13:16:05.553Z,25.20
2019-04-25T13:18:36.169Z,25.30
2019-04-25T13:21:07.702Z,25.20
2019-04-25T13:23:38.411Z,25.10
2019-04-25T13:26:10.662Z,25.20
2019-04-25T13:28:50.326Z,25.30
2019-04-25T13:31:45.145Z,25.40
2019-04-25T13:34:20.447Z,25.50
2019-04-25T13:36:51.103Z,25.20
2019-04-25T13:39:24.149Z,25.00
2019-04-25T13:41:58.307Z,24.80
2019-04-25T13:44:27.472Z,24.60
2019-04-25T13:46:59.658Z,24.40
2019-04-25T13:49:30.416Z,24.40
2019-04-25T13:52:01.244Z,24.40
2019-04-25T13:54:33.810Z,24.30
2019-04-25T13:57:04.506Z,24.20
2019-04-25T13:59:35.334Z,24.20
2019-04-25T14:02:08.964Z,24.30
2019-04-25T14:04:39.770Z,24.20
2019-04-25T14:07:10.682Z,24.00
2019-04-25T14:09:41.309Z,23.80
2019-04-25T14:12:13.922Z,23.70
2019-04-25T14:14:49.101Z,23.50
2019-04-25T14:17:38.255Z,23.30
2019-04-25T14:20:15.995Z,23.10
2019-04-25T14:22:46.729Z,23.00
2019-04-25T14:25:19.768Z,22.90
2019-04-25T14:27:50.727Z,23.00
2019-04-25T14:30:26.453Z,23.10
2019-04-25T14:33:07.126Z,23.10
2019-04-25T14:35:40.529Z,23.10
2019-04-25T14:38:11.334Z,23.20
2019-04-25T14:40:43.785Z,23.20
2019-04-25T14:43:17.238Z,23.30
2019-04-25T14:45:49.744Z,23.30
2019-04-25T14:48:22.559Z,23.40
2019-04-25T14:50:56.786Z,23.40
2019-04-25T14:53:35.177Z,23.40
2019-04-25T14:56:28.198Z,23.30
2019-04-25T14:58:59.036Z,23.30
2019-04-25T15:01:30.174Z,23.30
2019-04-25T15:04:07.672Z,23.30
2019-04-25T15:06:43.075Z,23.30
2019-04-25T15:09:13.845Z,23.20
2019-04-25T15:11:48.269Z,23.40
2019-04-25T15:14:19.028Z,23.40
2019-04-25T15:16:49.685Z,23.40
2019-04-25T15:19:23.099Z,23.40
2019-04-25T15:21:57.777Z,23.20
2019-04-25T15:24:30.750Z,23.10
2019-04-25T15:27:03.778Z,22.90
2019-04-25T15:29:36.159Z,22.80
2019-04-25T15:32:08.568Z,22.80
2019-04-25T15:34:46.128Z,22.90
2019-04-25T15:37:27.141Z,23.00
2019-04-25T15:40:04.834Z,23.10
2019-04-25T15:42:46.001Z,23.10
2019-04-25T15:45:31.643Z,23.20
2019-04-25T15:48:09.992Z,23.20
2019-04-25T15:50:47.033Z,23.30
2019-04-25T15:53:22.986Z,23.40
2019-04-25T15:55:55.337Z,23.30
2019-04-25T15:58:26.419Z,23.40
2019-04-25T16:01:02.975Z,23.40
2019-04-25T16:03:35.203Z,23.40
2019-04-25T16:06:09.181Z,23.40
2019-04-25T16:08:44.987Z,23.30
2019-04-25T16:11:15.851Z,23.20
2019-04-25T16:13:46.527Z,23.20
2019-04-25T16:16:23.517Z,23.30
2019-04-25T16:19:11.753Z,23.30
2019-04-25T16:21:46.387Z,23.30
2019-04-25T16:24:34.360Z,23.30
2019-04-25T16:27:12.812Z,23.30
2019-04-25T16:29:49.984Z,23.20
2019-04-25T16:32:24.245Z,23.20
2019-04-25T16:34:59.317Z,23.20
2019-04-25T16:37:33.344Z,23.20
2019-04-25T16:40:14.306Z,23.20
2019-04-25T16:42:49.843Z,23.10
2019-04-25T16:45:20.890Z,23.10
2019-04-25T16:47:57.138Z,23.10
2019-04-25T16:50:38.759Z,23.00
2019-04-25T16:53:17.085Z,23.00
2019-04-25T16:55:50.068Z,23.00
2019-04-25T16:58:29.761Z,23.00
2019-04-25T17:01:12.719Z,22.90
2019-04-25T17:03:54.942Z,22.90
2019-04-25T17:06:30.136Z,22.80
2019-04-25T17:09:04.542Z,22.80
2019-04-25T17:11:35.939Z,22.70
2019-04-25T17:14:18.296Z,22.60
2019-04-25T17:16:59.053Z,22.60
2019-04-25T17:19:47.646Z,22.50
2019-04-25T17:22:18.522Z,22.40
2019-04-25T17:24:49.499Z,22.40
2019-04-25T17:27:20.701Z,22.30
2019-04-25T17:29:51.373Z,22.20
2019-04-25T17:32:50.470Z,22.20
2019-04-25T17:35:30.851Z,22.10
2019-04-25T17:38:09.555Z,22.00
2019-04-25T17:40:41.881Z,22.00
2019-04-25T17:43:12.973Z,21.90
2019-04-25T17:45:43.834Z,21.80
2019-04-25T17:48:14.861Z,21.80
2019-04-25T17:50:45.584Z,21.70
2019-04-25T17:53:16.291Z,21.60
2019-04-25T17:55:47.464Z,21.50
2019-04-25T17:58:20.970Z,21.50
2019-04-25T18:00:52.044Z,21.40
2019-04-25T18:03:23.204Z,21.40
2019-04-25T18:05:54.050Z,21.30
2019-04-25T18:08:25.013Z,21.30
2019-04-25T18:10:55.946Z,21.20
2019-04-25T18:13:29.509Z,21.20
2019-04-25T18:16:22.135Z,21.10
2019-04-25T18:19:09.398Z,21.00
2019-04-25T18:21:40.718Z,21.00
2019-04-25T18:24:29.553Z,20.90
2019-04-25T18:27:07.017Z,20.80
2019-04-25T18:29:37.842Z,20.80
2019-04-25T18:32:09.890Z,20.70
2019-04-25T18:34:56.549Z,20.70
2019-04-25T18:37:45.179Z,20.60
2019-04-25T18:40:27.469Z,20.50
2019-04-25T18:43:11.450Z,20.50
2019-04-25T18:45:47.629Z,20.40
2019-04-25T18:48:20.657Z,20.30
2019-04-25T18:51:09.685Z,20.30
2019-04-25T18:54:04.646Z,20.20
2019-04-25T18:56:47.597Z,20.10
2019-04-25T18:59:32.619Z,20.10
2019-04-25T19:02:17.732Z,20.10
2019-04-25T19:05:18.152Z,20.00
2019-04-25T19:07:53.212Z,19.90
2019-04-25T19:10:24.051Z,20.00
2019-04-25T19:12:56.588Z,20.00
2019-04-25T19:15:30.300Z,20.00
2019-04-25T19:18:03.762Z,20.00
2019-04-25T19:20:34.664Z,20.00
2019-04-25T19:23:05.361Z,20.10
2019-04-25T19:25:36.109Z,20.00
2019-04-25T19:28:18.285Z,20.10
2019-04-25T19:35:37.910Z,20.00
2019-04-25T19:38:13.319Z,20.00
2019-04-25T19:41:11.565Z,19.90
2019-04-25T19:43:49.344Z,19.90
2019-04-25T19:46:22.918Z,19.90
2019-04-25T19:48:56.557Z,19.80
2019-04-25T19:51:28.707Z,19.80
2019-04-25T19:54:02.679Z,19.80
2019-04-25T19:56:33.884Z,19.70
2019-04-25T19:59:12.840Z,19.70
2019-04-25T20:02:18.647Z,19.60
2019-04-25T20:05:20.121Z,19.50
2019-04-25T20:08:01.671Z,19.50
2019-04-25T20:10:46.842Z,19.50
2019-04-25T20:13:28.492Z,19.40
2019-04-25T20:16:05.875Z,19.40
2019-04-25T20:18:45.429Z,19.30
2019-04-25T20:21:26.808Z,19.30
2019-04-25T20:24:10.270Z,19.30
2019-04-25T20:26:45.014Z,19.30
2019-04-25T20:29:30.236Z,19.30
2019-04-25T20:32:02.024Z,19.20
2019-04-25T20:34:49.400Z,19.10
2019-04-25T20:37:30.506Z,19.10
2019-04-25T20:40:02.121Z,19.00
2019-04-25T20:43:17.032Z,19.00
2019-04-25T20:45:56.516Z,19.00
2019-04-25T20:48:36.497Z,18.90
2019-04-25T20:51:13.661Z,18.90
2019-04-25T20:53:47.959Z,18.90
2019-04-25T20:56:19.795Z,18.80
2019-04-25T20:58:51.492Z,18.90
2019-04-25T21:01:22.680Z,18.80
2019-04-25T21:04:12.679Z,18.70
2019-04-25T21:06:44.959Z,18.80
2019-04-25T21:09:39.599Z,18.70
2019-04-25T21:12:13.769Z,18.70
2019-04-25T21:15:06.069Z,18.70
2019-04-25T21:17:48.439Z,18.80
2019-04-25T21:20:23.827Z,18.70
2019-04-25T21:22:54.551Z,18.80
2019-04-25T21:25:25.550Z,18.70
2019-04-25T21:27:57.260Z,18.70
2019-04-25T21:30:28.305Z,18.70
2019-04-25T21:33:06.034Z,18.70
2019-04-25T21:35:42.817Z,18.70
2019-04-25T21:38:15.331Z,18.70
2019-04-25T21:41:24.158Z,18.70
2019-04-25T21:44:03.239Z,18.70
2019-04-25T21:46:37.295Z,18.60
2019-04-25T21:49:08.482Z,18.60
2019-04-25T21:51:48.530Z,18.60
2019-04-25T21:54:22.727Z,18.60
2019-04-25T21:56:55.582Z,18.60
2019-04-25T21:59:32.365Z,18.70
2019-04-25T22:02:05.601Z,18.70
2019-04-25T22:04:41.237Z,18.70
2019-04-25T22:07:12.920Z,18.60
2019-04-25T22:09:43.819Z,18.60
2019-04-25T22:12:15.165Z,18.60
2019-04-25T22:14:45.899Z,18.60
2019-04-25T22:17:16.767Z,18.60
2019-04-25T22:19:49.437Z,18.60
2019-04-25T22:22:22.265Z,18.70
2019-04-25T22:24:54.951Z,18.60
2019-04-25T22:27:30.665Z,18.50
2019-04-25T22:30:01.468Z,18.50
2019-04-25T22:32:48.601Z,18.40
2019-04-25T22:35:31.059Z,18.30
2019-04-25T22:38:04.231Z,18.20
2019-04-25T22:40:35.055Z,18.10
2019-04-25T22:43:06.512Z,18.00
2019-04-25T22:45:38.021Z,17.90
2019-04-25T22:48:08.737Z,17.80
2019-04-25T22:50:39.565Z,17.70
2019-04-25T22:53:21.563Z,17.70
2019-04-25T22:55:42.672Z,17.70
2019-04-25T22:58:13.216Z,17.50
2019-04-25T23:00:43.805Z,17.20
2019-04-25T23:03:21.006Z,16.90
2019-04-25T23:05:54.959Z,16.70
2019-04-25T23:08:25.945Z,16.50
2019-04-25T23:10:56.918Z,16.30
2019-04-25T23:13:27.601Z,16.10
2019-04-25T23:15:58.739Z,16.00
2019-04-25T23:18:29.945Z,15.90
2019-04-25T23:21:00.685Z,15.70
2019-04-25T23:23:32.407Z,15.70
2019-04-25T23:26:14.107Z,15.60
2019-04-25T23:28:45.219Z,15.50
2019-04-25T23:31:20.256Z,15.40
2019-04-25T23:33:51.010Z,15.40
2019-04-25T23:36:22.404Z,15.30
2019-04-25T23:38:53.061Z,15.20
2019-04-25T23:41:23.930Z,15.20
2019-04-25T23:43:54.633Z,15.10
2019-04-25T23:46:25.888Z,15.10
2019-04-25T23:48:56.553Z,15.00
2019-04-25T23:51:27.182Z,15.00
2019-04-25T23:53:59.556Z,14.90
2019-04-25T23:56:30.296Z,14.90
2019-04-25T23:59:01.280Z,14.80
